createdAt,value
2018-12-07T00:02:46.134Z,11.30
2018-12-07T00:07:48.650Z,11.30
2018-12-07T00:12:51.581Z,11.20
2018-12-07T00:17:54.054Z,11.30
2018-12-07T00:22:56.645Z,11.30
2018-12-07T00:27:59.558Z,11.20
2018-12-07T00:33:02.065Z,11.20
2018-12-07T00:38:04.645Z,11.20
2018-12-07T00:43:07.141Z,11.20
2018-12-07T00:48:09.635Z,11.10
2018-12-07T00:53:12.235Z,11.20
2018-12-07T00:58:14.821Z,11.10
2018-12-07T01:03:18.079Z,11.20
2018-12-07T01:08:20.630Z,11.10
2018-12-07T01:13:23.226Z,11.10
2018-12-07T01:18:25.914Z,11.10
2018-12-07T01:23:28.389Z,11.10
2018-12-07T01:28:31.396Z,11.10
2018-12-07T01:33:33.901Z,11.10
2018-12-07T01:38:36.406Z,11.10
2018-12-07T01:43:38.909Z,11.10
2018-12-07T01:48:41.542Z,11.10
2018-12-07T01:53:44.186Z,11.10
2018-12-07T01:58:46.701Z,11.10
2018-12-07T02:03:49.169Z,11.10
2018-12-07T02:08:51.628Z,11.10
2018-12-07T02:13:54.097Z,11.10
2018-12-07T02:18:56.569Z,11.00
2018-12-07T02:23:59.137Z,11.10
2018-12-07T02:29:01.638Z,11.00
2018-12-07T02:34:04.114Z,11.00
2018-12-07T02:39:06.631Z,11.00
2018-12-07T02:44:09.831Z,11.00
2018-12-07T02:49:12.334Z,11.00
2018-12-07T02:54:14.969Z,11.00
2018-12-07T02:59:17.425Z,11.00
2018-12-07T03:04:19.894Z,11.00
2018-12-07T03:09:22.404Z,11.00
2018-12-07T03:14:24.898Z,11.00
2018-12-07T03:19:27.386Z,11.00
2018-12-07T03:24:29.886Z,11.00
2018-12-07T03:29:32.494Z,11.00
2018-12-07T03:34:35.239Z,11.00
2018-12-07T03:39:37.974Z,11.00
2018-12-07T03:44:40.891Z,11.00
2018-12-07T03:49:43.999Z,11.00
2018-12-07T03:54:46.479Z,11.00
2018-12-07T03:59:48.970Z,11.00
2018-12-07T04:04:51.460Z,11.00
2018-12-07T04:09:54.070Z,11.00
2018-12-07T04:14:56.971Z,11.00
2018-12-07T04:19:59.983Z,11.10
2018-12-07T04:25:02.580Z,11.10
2018-12-07T04:30:24.719Z,11.00
2018-12-07T04:35:27.218Z,11.10
2018-12-07T04:40:29.723Z,11.00
2018-12-07T04:45:32.287Z,11.00
2018-12-07T04:50:34.754Z,11.00
2018-12-07T04:55:37.487Z,11.00
2018-12-07T05:00:40.088Z,11.00
2018-12-07T05:05:44.027Z,11.00
2018-12-07T05:10:46.488Z,11.00
2018-12-07T05:15:49.051Z,11.00
2018-12-07T05:20:51.611Z,11.00
2018-12-07T05:25:54.147Z,11.00
2018-12-07T05:30:56.882Z,11.00
2018-12-07T05:35:59.887Z,11.00
2018-12-07T05:41:02.382Z,11.00
2018-12-07T05:46:05.100Z,11.00
2018-12-07T05:51:07.679Z,11.00
2018-12-07T05:56:10.274Z,11.00
2018-12-07T06:01:12.866Z,11.00
2018-12-07T06:06:16.118Z,11.00
2018-12-07T06:11:18.637Z,11.00
2018-12-07T06:16:21.535Z,11.00
2018-12-07T06:21:24.106Z,11.00
2018-12-07T06:26:26.814Z,11.00
2018-12-07T06:31:29.281Z,11.00
2018-12-07T06:36:31.750Z,11.00
2018-12-07T06:41:34.246Z,11.00
2018-12-07T06:46:37.467Z,11.00
2018-12-07T06:51:40.466Z,11.00
2018-12-07T06:56:43.054Z,11.00
2018-12-07T07:01:45.576Z,11.00
2018-12-07T07:06:48.150Z,11.00
2018-12-07T07:11:51.497Z,11.00
2018-12-07T07:16:54.050Z,11.00
2018-12-07T07:21:56.654Z,11.00
2018-12-07T07:26:59.957Z,11.00
2018-12-07T07:32:02.513Z,11.00
2018-12-07T07:37:05.054Z,11.00
2018-12-07T07:42:07.643Z,11.00
2018-12-07T07:47:10.117Z,11.00
2018-12-07T07:52:12.648Z,11.00
2018-12-07T07:57:15.117Z,11.00
2018-12-07T08:02:17.726Z,11.00
2018-12-07T08:07:20.618Z,11.00
2018-12-07T08:12:23.830Z,11.00
2018-12-07T08:17:26.298Z,11.00
2018-12-07T08:22:28.762Z,11.00
2018-12-07T08:27:31.282Z,11.00
2018-12-07T08:32:33.923Z,11.00
2018-12-07T08:37:36.516Z,11.00
2018-12-07T08:42:39.198Z,11.00
2018-12-07T08:47:41.686Z,11.00
2018-12-07T08:52:44.166Z,11.00
2018-12-07T08:57:46.674Z,11.00
2018-12-07T09:02:49.190Z,11.00
2018-12-07T09:07:51.698Z,11.00
2018-12-07T09:12:54.260Z,11.10
2018-12-07T09:17:57.158Z,11.10
2018-12-07T09:22:59.755Z,11.00
2018-12-07T09:28:02.267Z,11.10
2018-12-07T09:33:05.255Z,11.00
2018-12-07T09:38:13.121Z,11.10
2018-12-07T09:43:12.707Z,11.10
2018-12-07T09:48:15.194Z,11.00
2018-12-07T09:53:17.687Z,11.00
2018-12-07T09:58:20.284Z,11.00
2018-12-07T10:03:22.876Z,11.00
2018-12-07T10:08:25.375Z,11.00
2018-12-07T10:13:27.857Z,11.00
2018-12-07T10:18:30.484Z,11.00
2018-12-07T10:23:33.383Z,11.00
2018-12-07T10:28:35.955Z,11.00
2018-12-07T10:33:38.866Z,11.00
2018-12-07T10:38:41.385Z,11.00
2018-12-07T10:43:44.253Z,11.10
2018-12-07T10:48:46.739Z,11.10
2018-12-07T10:53:49.206Z,11.10
2018-12-07T10:58:51.730Z,11.10
2018-12-07T11:03:59.990Z,11.20
2018-12-07T11:09:04.426Z,11.20
2018-12-07T11:14:12.418Z,11.20
2018-12-07T11:19:20.719Z,11.30
2018-12-07T11:24:28.838Z,11.30
2018-12-07T11:29:37.495Z,11.30
2018-12-07T11:34:41.904Z,11.30
2018-12-07T11:39:44.354Z,11.30
2018-12-07T11:44:46.963Z,11.40
2018-12-07T11:49:49.463Z,11.40
2018-12-07T11:54:52.582Z,11.40
2018-12-07T11:59:55.158Z,11.50
2018-12-07T12:04:57.658Z,11.50
2018-12-07T12:10:00.234Z,11.50
2018-12-07T12:15:03.348Z,11.50
2018-12-07T12:20:07.433Z,11.50
2018-12-07T12:25:10.263Z,11.50
2018-12-07T12:30:12.912Z,11.50
2018-12-07T12:35:15.473Z,11.50
2018-12-07T12:40:18.051Z,11.40
2018-12-07T12:45:20.651Z,11.40
2018-12-07T12:50:28.750Z,11.30
2018-12-07T12:55:32.136Z,11.30
2018-12-07T13:00:34.687Z,11.30
2018-12-07T13:05:37.462Z,11.30
2018-12-07T13:10:39.971Z,11.30
2018-12-07T13:15:42.570Z,11.40
2018-12-07T13:20:45.070Z,11.40
2018-12-07T13:25:47.559Z,11.50
2018-12-07T13:30:50.258Z,11.50
2018-12-07T13:35:52.746Z,11.60
2018-12-07T13:40:55.393Z,11.60
2018-12-07T13:45:58.048Z,11.60
2018-12-07T13:51:00.881Z,11.50
2018-12-07T13:56:03.606Z,11.50
2018-12-07T14:01:07.053Z,11.50
2018-12-07T14:06:09.758Z,11.30
2018-12-07T14:11:12.310Z,11.20
2018-12-07T14:16:14.915Z,11.30
2018-12-07T14:21:18.096Z,11.40
2018-12-07T14:26:20.661Z,11.40
2018-12-07T14:31:23.272Z,11.30
2018-12-07T14:36:26.124Z,11.20
2018-12-07T14:41:29.320Z,11.10
2018-12-07T14:46:32.481Z,11.10
2018-12-07T14:51:35.754Z,11.00
2018-12-07T14:56:38.545Z,11.00
2018-12-07T15:01:41.200Z,10.90
2018-12-07T15:06:43.885Z,10.90
2018-12-07T15:11:46.796Z,10.90
2018-12-07T15:16:49.583Z,10.80
2018-12-07T15:21:52.399Z,10.80
2018-12-07T15:26:55.084Z,10.70
2018-12-07T15:31:57.688Z,10.70
2018-12-07T15:37:00.397Z,10.70
2018-12-07T15:42:02.946Z,10.60
2018-12-07T15:47:05.783Z,10.60
2018-12-07T15:52:08.970Z,10.60
2018-12-07T15:57:11.678Z,10.50
2018-12-07T16:02:14.370Z,10.40
2018-12-07T16:07:17.140Z,10.40
2018-12-07T16:12:19.858Z,10.30
2018-12-07T16:17:22.441Z,10.30
2018-12-07T16:22:25.070Z,10.30
2018-12-07T16:27:27.737Z,10.30
2018-12-07T16:32:30.841Z,10.20
2018-12-07T16:37:33.538Z,10.20
2018-12-07T16:42:36.505Z,10.20
2018-12-07T16:47:39.138Z,10.10
2018-12-07T16:52:41.791Z,10.10
2018-12-07T16:57:44.356Z,10.10
2018-12-07T17:02:47.076Z,10.10
2018-12-07T17:07:49.817Z,10.10
2018-12-07T17:12:52.452Z,10.10
2018-12-07T17:17:55.454Z,10.10
2018-12-07T17:22:58.188Z,10.10
2018-12-07T17:28:00.848Z,10.10
2018-12-07T17:33:03.689Z,10.10
2018-12-07T17:38:06.234Z,10.10
2018-12-07T17:43:09.931Z,9.70
2018-12-07T17:48:12.599Z,8.60
2018-12-07T17:53:15.290Z,8.20
2018-12-07T17:58:17.854Z,8.00
2018-12-07T18:03:20.443Z,7.90
2018-12-07T18:08:23.066Z,7.90
2018-12-07T18:13:25.653Z,7.80
2018-12-07T18:18:28.313Z,7.40
2018-12-07T18:23:31.039Z,7.20
2018-12-07T18:28:33.891Z,7.00
2018-12-07T18:33:36.857Z,6.90
2018-12-07T18:38:39.562Z,6.90
2018-12-07T18:43:42.344Z,6.80
2018-12-07T18:48:45.303Z,6.80
2018-12-07T18:53:48.326Z,6.80
2018-12-07T18:58:51.606Z,6.90
2018-12-07T19:03:54.777Z,6.90
2018-12-07T19:08:57.576Z,6.80
2018-12-07T19:14:00.681Z,6.80
2018-12-07T19:19:03.677Z,6.70
2018-12-07T19:24:06.615Z,6.60
2018-12-07T19:29:09.339Z,6.60
2018-12-07T19:34:12.084Z,6.60
2018-12-07T19:39:15.101Z,6.60
2018-12-07T19:44:17.966Z,6.50
2018-12-07T19:49:20.856Z,6.40
2018-12-07T19:54:23.749Z,6.50
2018-12-07T19:59:26.385Z,6.60
2018-12-07T20:04:28.939Z,6.70
2018-12-07T20:09:32.092Z,6.70
2018-12-07T20:14:34.787Z,6.80
2018-12-07T20:19:37.354Z,6.90
2018-12-07T20:24:40.025Z,6.90
2018-12-07T20:29:42.825Z,7.00
2018-12-07T20:34:45.554Z,6.90
2018-12-07T20:39:48.103Z,6.80
2018-12-07T20:44:51.237Z,6.90
2018-12-07T20:49:53.847Z,6.80
2018-12-07T20:54:56.599Z,6.80
2018-12-07T20:59:59.366Z,6.80
2018-12-07T21:05:03.507Z,6.80
2018-12-07T21:15:59.096Z,6.60
2018-12-07T21:21:01.707Z,6.40
2018-12-07T21:26:04.671Z,6.30
2018-12-07T21:31:07.474Z,6.20
2018-12-07T21:36:28.646Z,6.30
2018-12-07T21:41:31.277Z,6.50
2018-12-07T21:46:34.077Z,6.60
2018-12-07T21:51:58.106Z,6.60
2018-12-07T21:57:00.603Z,6.30
2018-12-07T22:02:03.211Z,6.10
2018-12-07T22:07:06.051Z,6.00
2018-12-07T22:12:08.856Z,5.80
2018-12-07T22:17:11.395Z,5.80
2018-12-07T22:22:14.659Z,5.90
2018-12-07T22:27:17.110Z,5.80
2018-12-07T22:32:19.921Z,5.90
2018-12-07T22:37:22.790Z,5.80
2018-12-07T22:42:25.500Z,5.90
2018-12-07T22:47:28.705Z,6.00
2018-12-07T22:52:31.203Z,6.00
2018-12-07T22:57:33.662Z,6.30
2018-12-07T23:02:36.617Z,6.10
2018-12-07T23:07:39.195Z,5.70
2018-12-07T23:12:41.790Z,5.60
2018-12-07T23:17:44.289Z,5.80
2018-12-07T23:22:49.125Z,5.70
2018-12-07T23:27:51.654Z,5.60
2018-12-07T23:32:54.127Z,5.50
2018-12-07T23:37:56.723Z,5.40
2018-12-07T23:43:01.071Z,5.40
2018-12-07T23:48:03.644Z,5.30
2018-12-07T23:53:06.441Z,5.30
2018-12-07T23:58:08.943Z,5.20
